sensor_id;sensor_type;location;lat;lon;timestamp;P1;P2;P0
63707;PMS5003;67643;-34.198;22.084;2023-04-19T00:00:10;22;17;
63707;PMS5003;67643;-34.198;22.084;2023-04-19T00:02:39;21;17;
63707;PMS5003;67643;-34.198;22.084;2023-04-19T00:05:07;22;16;
63707;PMS5003;67643;-34.198;22.084;2023-04-19T00:07:36;23;17;
63707;PMS5003;67643;-34.198;22.084;2023-04-19T00:10:05;24;19;
63707;PMS5003;67643;-34.198;22.084;2023-04-19T00:12:34;19;14;
63707;PMS5003;67643;-34.198;22.084;2023-04-19T00:15:04;26;23;
63707;PMS5003;67643;-34.198;22.084;2023-04-19T00:17:33;22;18;
63707;PMS5003;67643;-34.198;22.084;2023-04-19T00:20:02;22;19;
63707;PMS5003;67643;-34.198;22.084;2023-04-19T00:22:31;23;18;
63707;PMS5003;67643;-34.198;22.084;2023-04-19T00:25:01;29;25;
63707;PMS5003;67643;-34.198;22.084;2023-04-19T00:27:29;20;20;
63707;PMS5003;67643;-34.198;22.084;2023-04-19T00:29:57;17;17;
63707;PMS5003;67643;-34.198;22.084;2023-04-19T00:32:25;21;19;
63707;PMS5003;67643;-34.198;22.084;2023-04-19T00:34:54;16;15;
63707;PMS5003;67643;-34.198;22.084;2023-04-19T00:37:22;17;17;
63707;PMS5003;67643;-34.198;22.084;2023-04-19T00:39:51;18;18;
63707;PMS5003;67643;-34.198;22.084;2023-04-19T00:42:19;18;15;
63707;PMS5003;67643;-34.198;22.084;2023-04-19T00:44:47;16;15;
63707;PMS5003;67643;-34.198;22.084;2023-04-19T00:47:16;19;14;
63707;PMS5003;67643;-34.198;22.084;2023-04-19T00:49:44;18;15;
63707;PMS5003;67643;-34.198;22.084;2023-04-19T00:52:13;17;16;
63707;PMS5003;67643;-34.198;22.084;2023-04-19T00:54:41;18;17;
63707;PMS5003;67643;-34.198;22.084;2023-04-19T00:57:11;16;16;
63707;PMS5003;67643;-34.198;22.084;2023-04-19T00:59:40;19;18;
63707;PMS5003;67643;-34.198;22.084;2023-04-19T01:02:09;21;17;
63707;PMS5003;67643;-34.198;22.084;2023-04-19T01:04:38;25;24;
63707;PMS5003;67643;-34.198;22.084;2023-04-19T01:07:06;18;18;
63707;PMS5003;67643;-34.198;22.084;2023-04-19T01:09:38;19;19;
63707;PMS5003;67643;-34.198;22.084;2023-04-19T01:12:09;25;19;
63707;PMS5003;67643;-34.198;22.084;2023-04-19T01:14:37;21;18;
63707;PMS5003;67643;-34.198;22.084;2023-04-19T01:17:06;25;21;
63707;PMS5003;67643;-34.198;22.084;2023-04-19T01:19:36;22;21;
63707;PMS5003;67643;-34.198;22.084;2023-04-19T01:22:04;23;23;
63707;PMS5003;67643;-34.198;22.084;2023-04-19T01:24:32;23;19;
63707;PMS5003;67643;-34.198;22.084;2023-04-19T01:27:01;20;16;
63707;PMS5003;67643;-34.198;22.084;2023-04-19T01:29:29;23;20;
63707;PMS5003;67643;-34.198;22.084;2023-04-19T01:31:57;23;19;
63707;PMS5003;67643;-34.198;22.084;2023-04-19T01:34:27;25;23;
63707;PMS5003;67643;-34.198;22.084;2023-04-19T01:36:55;20;18;
63707;PMS5003;67643;-34.198;22.084;2023-04-19T01:39:24;20;17;
63707;PMS5003;67643;-34.198;22.084;2023-04-19T01:41:53;19;16;
63707;PMS5003;67643;-34.198;22.084;2023-04-19T01:44:21;22;19;
63707;PMS5003;67643;-34.198;22.084;2023-04-19T01:46:49;23;19;
63707;PMS5003;67643;-34.198;22.084;2023-04-19T01:49:17;20;16;
63707;PMS5003;67643;-34.198;22.084;2023-04-19T01:51:45;24;18;
63707;PMS5003;67643;-34.198;22.084;2023-04-19T01:54:14;18;16;
63707;PMS5003;67643;-34.198;22.084;2023-04-19T01:56:42;17;17;
63707;PMS5003;67643;-34.198;22.084;2023-04-19T01:59:11;19;16;
63707;PMS5003;67643;-34.198;22.084;2023-04-19T04:06:00;14;13;
63707;PMS5003;67643;-34.198;22.084;2023-04-19T04:08:31;10;10;
63707;PMS5003;67643;-34.198;22.084;2023-04-19T04:10:59;20;15;
63707;PMS5003;67643;-34.198;22.084;2023-04-19T04:13:28;13;13;
63707;PMS5003;67643;-34.198;22.084;2023-04-19T04:15:56;9;9;
63707;PMS5003;67643;-34.198;22.084;2023-04-19T04:18:26;19;19;
63707;PMS5003;67643;-34.198;22.084;2023-04-19T04:20:54;21;17;
63707;PMS5003;67643;-34.198;22.084;2023-04-19T04:23:24;15;13;
63707;PMS5003;67643;-34.198;22.084;2023-04-19T04:25:56;18;15;
63707;PMS5003;67643;-34.198;22.084;2023-04-19T04:28:26;21;18;
63707;PMS5003;67643;-34.198;22.084;2023-04-19T04:30:55;17;17;
63707;PMS5003;67643;-34.198;22.084;2023-04-19T04:33:24;17;16;
63707;PMS5003;67643;-34.198;22.084;2023-04-19T04:35:54;23;20;
63707;PMS5003;67643;-34.198;22.084;2023-04-19T04:38:22;18;17;
63707;PMS5003;67643;-34.198;22.084;2023-04-19T04:40:51;18;15;
63707;PMS5003;67643;-34.198;22.084;2023-04-19T04:43:22;15;15;
63707;PMS5003;67643;-34.198;22.084;2023-04-19T04:45:51;17;15;
63707;PMS5003;67643;-34.198;22.084;2023-04-19T04:48:19;22;16;
63707;PMS5003;67643;-34.198;22.084;2023-04-19T04:50:47;20;18;
63707;PMS5003;67643;-34.198;22.084;2023-04-19T04:53:16;16;16;
63707;PMS5003;67643;-34.198;22.084;2023-04-19T04:55:44;18;16;
63707;PMS5003;67643;-34.198;22.084;2023-04-19T04:58:12;16;16;
63707;PMS5003;67643;-34.198;22.084;2023-04-19T05:00:40;16;15;
63707;PMS5003;67643;-34.198;22.084;2023-04-19T05:03:09;15;15;
63707;PMS5003;67643;-34.198;22.084;2023-04-19T05:05:37;16;16;
63707;PMS5003;67643;-34.198;22.084;2023-04-19T05:08:06;21;20;
63707;PMS5003;67643;-34.198;22.084;2023-04-19T05:10:35;26;18;
63707;PMS5003;67643;-34.198;22.084;2023-04-19T05:13:04;17;17;
63707;PMS5003;67643;-34.198;22.084;2023-04-19T05:15:32;20;18;
63707;PMS5003;67643;-34.198;22.084;2023-04-19T05:18:01;25;20;
63707;PMS5003;67643;-34.198;22.084;2023-04-19T05:20:29;22;18;
63707;PMS5003;67643;-34.198;22.084;2023-04-19T05:22:58;24;21;
63707;PMS5003;67643;-34.198;22.084;2023-04-19T05:25:27;25;23;
63707;PMS5003;67643;-34.198;22.084;2023-04-19T05:27:56;20;20;
63707;PMS5003;67643;-34.198;22.084;2023-04-19T05:30:25;26;24;
63707;PMS5003;67643;-34.198;22.084;2023-04-19T05:32:53;26;23;
63707;PMS5003;67643;-34.198;22.084;2023-04-19T05:35:22;30;28;
63707;PMS5003;67643;-34.198;22.084;2023-04-19T05:37:51;24;22;
63707;PMS5003;67643;-34.198;22.084;2023-04-19T05:40:24;24;23;
63707;PMS5003;67643;-34.198;22.084;2023-04-19T05:42:53;20;18;
63707;PMS5003;67643;-34.198;22.084;2023-04-19T05:45:21;19;18;
63707;PMS5003;67643;-34.198;22.084;2023-04-19T05:47:50;19;17;
63707;PMS5003;67643;-34.198;22.084;2023-04-19T05:50:19;21;19;
63707;PMS5003;67643;-34.198;22.084;2023-04-19T05:52:48;29;25;
63707;PMS5003;67643;-34.198;22.084;2023-04-19T05:55:16;22;20;
63707;PMS5003;67643;-34.198;22.084;2023-04-19T05:57:44;18;14;
63707;PMS5003;67643;-34.198;22.084;2023-04-19T06:00:13;18;14;
63707;PMS5003;67643;-34.198;22.084;2023-04-19T06:02:42;19;19;
63707;PMS5003;67643;-34.198;22.084;2023-04-19T06:05:10;19;17;
63707;PMS5003;67643;-34.198;22.084;2023-04-19T06:07:39;15;15;
63707;PMS5003;67643;-34.198;22.084;2023-04-19T06:10:09;16;14;
63707;PMS5003;67643;-34.198;22.084;2023-04-19T06:12:37;16;15;
63707;PMS5003;67643;-34.198;22.084;2023-04-19T06:15:06;15;12;
63707;PMS5003;67643;-34.198;22.084;2023-04-19T06:17:35;13;13;
63707;PMS5003;67643;-34.198;22.084;2023-04-19T06:20:04;17;15;
63707;PMS5003;67643;-34.198;22.084;2023-04-19T06:22:33;22;16;
63707;PMS5003;67643;-34.198;22.084;2023-04-19T06:25:07;16;15;
63707;PMS5003;67643;-34.198;22.084;2023-04-19T06:27:36;23;23;
63707;PMS5003;67643;-34.198;22.084;2023-04-19T06:30:05;27;25;
63707;PMS5003;67643;-34.198;22.084;2023-04-19T06:32:35;28;25;
63707;PMS5003;67643;-34.198;22.084;2023-04-19T06:35:05;26;25;
63707;PMS5003;67643;-34.198;22.084;2023-04-19T06:37:34;26;26;
63707;PMS5003;67643;-34.198;22.084;2023-04-19T06:40:03;21;18;
63707;PMS5003;67643;-34.198;22.084;2023-04-19T06:42:32;24;22;
63707;PMS5003;67643;-34.198;22.084;2023-04-19T06:45:01;25;24;
63707;PMS5003;67643;-34.198;22.084;2023-04-19T06:47:29;23;20;
63707;PMS5003;67643;-34.198;22.084;2023-04-19T06:49:58;23;19;
63707;PMS5003;67643;-34.198;22.084;2023-04-19T06:52:27;18;18;
63707;PMS5003;67643;-34.198;22.084;2023-04-19T06:54:55;20;19;
63707;PMS5003;67643;-34.198;22.084;2023-04-19T06:57:25;18;16;
63707;PMS5003;67643;-34.198;22.084;2023-04-19T06:59:53;16;13;
63707;PMS5003;67643;-34.198;22.084;2023-04-19T07:02:21;17;16;
63707;PMS5003;67643;-34.198;22.084;2023-04-19T07:04:50;26;23;
63707;PMS5003;67643;-34.198;22.084;2023-04-19T07:07:19;21;17;
63707;PMS5003;67643;-34.198;22.084;2023-04-19T07:09:48;20;20;
63707;PMS5003;67643;-34.198;22.084;2023-04-19T07:12:17;28;23;
63707;PMS5003;67643;-34.198;22.084;2023-04-19T07:14:46;21;21;
63707;PMS5003;67643;-34.198;22.084;2023-04-19T07:17:14;27;20;
63707;PMS5003;67643;-34.198;22.084;2023-04-19T07:19:46;21;20;
63707;PMS5003;67643;-34.198;22.084;2023-04-19T07:22:15;26;18;
63707;PMS5003;67643;-34.198;22.084;2023-04-19T07:24:44;33;22;
63707;PMS5003;67643;-34.198;22.084;2023-04-19T07:27:12;21;19;
63707;PMS5003;67643;-34.198;22.084;2023-04-19T07:29:42;20;19;
63707;PMS5003;67643;-34.198;22.084;2023-04-19T07:32:11;27;25;
63707;PMS5003;67643;-34.198;22.084;2023-04-19T07:34:40;25;17;
63707;PMS5003;67643;-34.198;22.084;2023-04-19T07:37:08;20;18;
63707;PMS5003;67643;-34.198;22.084;2023-04-19T07:39:37;26;23;
63707;PMS5003;67643;-34.198;22.084;2023-04-19T07:42:05;22;18;
63707;PMS5003;67643;-34.198;22.084;2023-04-19T07:44:34;18;14;
63707;PMS5003;67643;-34.198;22.084;2023-04-19T07:47:03;14;14;
63707;PMS5003;67643;-34.198;22.084;2023-04-19T07:49:31;18;17;
63707;PMS5003;67643;-34.198;22.084;2023-04-19T07:52:00;19;18;
63707;PMS5003;67643;-34.198;22.084;2023-04-19T07:54:29;16;14;
63707;PMS5003;67643;-34.198;22.084;2023-04-19T07:56:58;23;20;
63707;PMS5003;67643;-34.198;22.084;2023-04-19T07:59:26;18;17;
63707;PMS5003;67643;-34.198;22.084;2023-04-19T08:01:55;18;17;
63707;PMS5003;67643;-34.198;22.084;2023-04-19T08:04:23;21;19;
63707;PMS5003;67643;-34.198;22.084;2023-04-19T08:06:51;17;14;
63707;PMS5003;67643;-34.198;22.084;2023-04-19T08:09:20;16;15;
63707;PMS5003;67643;-34.198;22.084;2023-04-19T08:11:49;25;21;
63707;PMS5003;67643;-34.198;22.084;2023-04-19T08:14:18;17;16;
63707;PMS5003;67643;-34.198;22.084;2023-04-19T08:16:46;16;15;
63707;PMS5003;67643;-34.198;22.084;2023-04-19T08:19:15;18;18;
63707;PMS5003;67643;-34.198;22.084;2023-04-19T08:21:43;22;21;
63707;PMS5003;67643;-34.198;22.084;2023-04-19T08:24:12;25;20;
63707;PMS5003;67643;-34.198;22.084;2023-04-19T08:26:42;19;17;
63707;PMS5003;67643;-34.198;22.084;2023-04-19T08:29:10;18;17;
63707;PMS5003;67643;-34.198;22.084;2023-04-19T08:31:42;23;23;
63707;PMS5003;67643;-34.198;22.084;2023-04-19T08:34:12;18;16;
63707;PMS5003;67643;-34.198;22.084;2023-04-19T08:36:42;16;16;
63707;PMS5003;67643;-34.198;22.084;2023-04-19T08:39:11;20;19;
63707;PMS5003;67643;-34.198;22.084;2023-04-19T08:41:39;16;14;
63707;PMS5003;67643;-34.198;22.084;2023-04-19T08:44:08;22;16;
63707;PMS5003;67643;-34.198;22.084;2023-04-19T08:46:38;17;17;
63707;PMS5003;67643;-34.198;22.084;2023-04-19T08:49:07;19;15;
63707;PMS5003;67643;-34.198;22.084;2023-04-19T08:51:37;17;11;
63707;PMS5003;67643;-34.198;22.084;2023-04-19T08:54:06;15;14;
63707;PMS5003;67643;-34.198;22.084;2023-04-19T08:56:35;16;13;
63707;PMS5003;67643;-34.198;22.084;2023-04-19T08:59:04;14;12;
63707;PMS5003;67643;-34.198;22.084;2023-04-19T09:01:32;13;12;
63707;PMS5003;67643;-34.198;22.084;2023-04-19T09:04:01;17;14;
63707;PMS5003;67643;-34.198;22.084;2023-04-19T09:06:34;14;14;
63707;PMS5003;67643;-34.198;22.084;2023-04-19T09:09:19;16;12;
63707;PMS5003;67643;-34.198;22.084;2023-04-19T09:11:49;12;12;
63707;PMS5003;67643;-34.198;22.084;2023-04-19T09:14:19;17;15;
63707;PMS5003;67643;-34.198;22.084;2023-04-19T09:16:48;13;12;
63707;PMS5003;67643;-34.198;22.084;2023-04-19T09:19:17;21;17;
63707;PMS5003;67643;-34.198;22.084;2023-04-19T09:21:45;13;12;
63707;PMS5003;67643;-34.198;22.084;2023-04-19T09:24:14;15;15;
63707;PMS5003;67643;-34.198;22.084;2023-04-19T09:26:45;23;17;
63707;PMS5003;67643;-34.198;22.084;2023-04-19T09:29:21;18;15;
63707;PMS5003;67643;-34.198;22.084;2023-04-19T09:31:56;15;13;
63707;PMS5003;67643;-34.198;22.084;2023-04-19T09:34:25;24;16;
63707;PMS5003;67643;-34.198;22.084;2023-04-19T09:36:54;20;19;
63707;PMS5003;67643;-34.198;22.084;2023-04-19T09:39:30;15;12;
63707;PMS5003;67643;-34.198;22.084;2023-04-19T09:41:59;14;14;
63707;PMS5003;67643;-34.198;22.084;2023-04-19T09:44:28;19;16;
63707;PMS5003;67643;-34.198;22.084;2023-04-19T09:46:56;21;16;
63707;PMS5003;67643;-34.198;22.084;2023-04-19T09:49:25;18;15;
63707;PMS5003;67643;-34.198;22.084;2023-04-19T09:51:53;20;15;
63707;PMS5003;67643;-34.198;22.084;2023-04-19T09:54:23;17;14;
63707;PMS5003;67643;-34.198;22.084;2023-04-19T09:56:57;17;13;
63707;PMS5003;67643;-34.198;22.084;2023-04-19T09:59:27;17;13;
63707;PMS5003;67643;-34.198;22.084;2023-04-19T10:01:55;22;14;
63707;PMS5003;67643;-34.198;22.084;2023-04-19T12:07:15;15;14;
63707;PMS5003;67643;-34.198;22.084;2023-04-19T12:09:43;12;12;
63707;PMS5003;67643;-34.198;22.084;2023-04-19T12:12:30;20;13;
63707;PMS5003;67643;-34.198;22.084;2023-04-19T12:14:59;20;17;
63707;PMS5003;67643;-34.198;22.084;2023-04-19T12:17:28;17;15;
63707;PMS5003;67643;-34.198;22.084;2023-04-19T12:19:57;15;14;
63707;PMS5003;67643;-34.198;22.084;2023-04-19T12:22:25;20;18;
63707;PMS5003;67643;-34.198;22.084;2023-04-19T12:24:53;19;16;
63707;PMS5003;67643;-34.198;22.084;2023-04-19T12:27:22;18;15;
63707;PMS5003;67643;-34.198;22.084;2023-04-19T12:29:51;17;15;
63707;PMS5003;67643;-34.198;22.084;2023-04-19T12:32:20;14;12;
63707;PMS5003;67643;-34.198;22.084;2023-04-19T12:34:48;16;14;
63707;PMS5003;67643;-34.198;22.084;2023-04-19T12:37:16;20;18;
63707;PMS5003;67643;-34.198;22.084;2023-04-19T12:39:45;18;16;
63707;PMS5003;67643;-34.198;22.084;2023-04-19T12:42:13;20;16;
63707;PMS5003;67643;-34.198;22.084;2023-04-19T12:44:41;16;15;
63707;PMS5003;67643;-34.198;22.084;2023-04-19T12:47:10;16;16;
63707;PMS5003;67643;-34.198;22.084;2023-04-19T12:49:38;19;14;
63707;PMS5003;67643;-34.198;22.084;2023-04-19T12:52:07;22;18;
63707;PMS5003;67643;-34.198;22.084;2023-04-19T12:54:35;14;12;
63707;PMS5003;67643;-34.198;22.084;2023-04-19T12:57:04;17;16;
63707;PMS5003;67643;-34.198;22.084;2023-04-19T12:59:32;16;15;
63707;PMS5003;67643;-34.198;22.084;2023-04-19T13:02:01;15;12;
63707;PMS5003;67643;-34.198;22.084;2023-04-19T13:04:29;17;16;
63707;PMS5003;67643;-34.198;22.084;2023-04-19T13:06:58;16;13;
63707;PMS5003;67643;-34.198;22.084;2023-04-19T13:09:27;17;17;
63707;PMS5003;67643;-34.198;22.084;2023-04-19T13:11:55;21;15;
63707;PMS5003;67643;-34.198;22.084;2023-04-19T13:14:24;17;17;
63707;PMS5003;67643;-34.198;22.084;2023-04-19T13:16:53;16;15;
63707;PMS5003;67643;-34.198;22.084;2023-04-19T13:19:22;16;15;
63707;PMS5003;67643;-34.198;22.084;2023-04-19T13:21:51;13;13;
63707;PMS5003;67643;-34.198;22.084;2023-04-19T13:24:19;15;14;
63707;PMS5003;67643;-34.198;22.084;2023-04-19T13:26:48;19;19;
63707;PMS5003;67643;-34.198;22.084;2023-04-19T13:29:16;17;17;
63707;PMS5003;67643;-34.198;22.084;2023-04-19T13:31:44;18;18;
63707;PMS5003;67643;-34.198;22.084;2023-04-19T13:34:13;21;18;
63707;PMS5003;67643;-34.198;22.084;2023-04-19T13:36:41;16;16;
63707;PMS5003;67643;-34.198;22.084;2023-04-19T13:39:09;17;16;
63707;PMS5003;67643;-34.198;22.084;2023-04-19T13:41:37;17;14;
63707;PMS5003;67643;-34.198;22.084;2023-04-19T13:44:06;17;14;
63707;PMS5003;67643;-34.198;22.084;2023-04-19T13:46:34;15;15;
63707;PMS5003;67643;-34.198;22.084;2023-04-19T13:49:03;18;15;
63707;PMS5003;67643;-34.198;22.084;2023-04-19T13:51:31;19;16;
63707;PMS5003;67643;-34.198;22.084;2023-04-19T13:53:59;17;14;
63707;PMS5003;67643;-34.198;22.084;2023-04-19T13:56:27;17;14;
63707;PMS5003;67643;-34.198;22.084;2023-04-19T13:58:55;15;14;
63707;PMS5003;67643;-34.198;22.084;2023-04-19T14:01:24;16;15;
63707;PMS5003;67643;-34.198;22.084;2023-04-19T14:03:52;16;16;
63707;PMS5003;67643;-34.198;22.084;2023-04-19T14:06:21;15;13;
63707;PMS5003;67643;-34.198;22.084;2023-04-19T14:08:49;18;17;
63707;PMS5003;67643;-34.198;22.084;2023-04-19T14:11:18;15;15;
63707;PMS5003;67643;-34.198;22.084;2023-04-19T14:13:47;12;12;
63707;PMS5003;67643;-34.198;22.084;2023-04-19T14:16:15;19;15;
63707;PMS5003;67643;-34.198;22.084;2023-04-19T14:18:43;13;12;
63707;PMS5003;67643;-34.198;22.084;2023-04-19T14:21:12;14;13;
63707;PMS5003;67643;-34.198;22.084;2023-04-19T14:23:40;15;15;
63707;PMS5003;67643;-34.198;22.084;2023-04-19T14:26:10;12;12;
63707;PMS5003;67643;-34.198;22.084;2023-04-19T14:28:38;16;16;
63707;PMS5003;67643;-34.198;22.084;2023-04-19T14:31:07;19;15;
63707;PMS5003;67643;-34.198;22.084;2023-04-19T14:33:36;15;14;
63707;PMS5003;67643;-34.198;22.084;2023-04-19T14:36:05;17;15;
63707;PMS5003;67643;-34.198;22.084;2023-04-19T14:38:33;12;10;
63707;PMS5003;67643;-34.198;22.084;2023-04-19T14:41:02;15;14;
63707;PMS5003;67643;-34.198;22.084;2023-04-19T14:43:30;16;15;
63707;PMS5003;67643;-34.198;22.084;2023-04-19T14:45:58;17;15;
63707;PMS5003;67643;-34.198;22.084;2023-04-19T14:48:27;13;13;
63707;PMS5003;67643;-34.198;22.084;2023-04-19T14:50:56;16;14;
63707;PMS5003;67643;-34.198;22.084;2023-04-19T14:53:24;12;11;
63707;PMS5003;67643;-34.198;22.084;2023-04-19T14:55:53;16;15;
63707;PMS5003;67643;-34.198;22.084;2023-04-19T14:58:22;16;14;
63707;PMS5003;67643;-34.198;22.084;2023-04-19T15:00:50;15;15;
63707;PMS5003;67643;-34.198;22.084;2023-04-19T15:03:19;16;14;
63707;PMS5003;67643;-34.198;22.084;2023-04-19T15:05:47;17;15;
63707;PMS5003;67643;-34.198;22.084;2023-04-19T15:08:15;14;13;
63707;PMS5003;67643;-34.198;22.084;2023-04-19T15:10:44;13;11;
63707;PMS5003;67643;-34.198;22.084;2023-04-19T15:13:12;15;13;
63707;PMS5003;67643;-34.198;22.084;2023-04-19T15:15:41;14;14;
63707;PMS5003;67643;-34.198;22.084;2023-04-19T15:18:09;13;11;
63707;PMS5003;67643;-34.198;22.084;2023-04-19T15:20:38;14;13;
63707;PMS5003;67643;-34.198;22.084;2023-04-19T15:23:07;21;16;
63707;PMS5003;67643;-34.198;22.084;2023-04-19T15:25:36;15;14;
63707;PMS5003;67643;-34.198;22.084;2023-04-19T15:28:04;16;13;
63707;PMS5003;67643;-34.198;22.084;2023-04-19T15:30:33;16;12;
63707;PMS5003;67643;-34.198;22.084;2023-04-19T15:33:02;16;14;
63707;PMS5003;67643;-34.198;22.084;2023-04-19T15:35:30;13;12;
63707;PMS5003;67643;-34.198;22.084;2023-04-19T15:37:59;14;12;
63707;PMS5003;67643;-34.198;22.084;2023-04-19T15:40:27;14;14;
63707;PMS5003;67643;-34.198;22.084;2023-04-19T15:42:56;22;17;
63707;PMS5003;67643;-34.198;22.084;2023-04-19T15:45:25;13;13;
63707;PMS5003;67643;-34.198;22.084;2023-04-19T15:47:53;12;11;
63707;PMS5003;67643;-34.198;22.084;2023-04-19T15:50:21;14;11;
63707;PMS5003;67643;-34.198;22.084;2023-04-19T15:52:50;11;11;
63707;PMS5003;67643;-34.198;22.084;2023-04-19T15:55:19;14;13;
63707;PMS5003;67643;-34.198;22.084;2023-04-19T15:57:47;12;11;
63707;PMS5003;67643;-34.198;22.084;2023-04-19T16:00:16;16;14;
63707;PMS5003;67643;-34.198;22.084;2023-04-19T16:02:45;14;13;
63707;PMS5003;67643;-34.198;22.084;2023-04-19T16:05:13;14;12;
63707;PMS5003;67643;-34.198;22.084;2023-04-19T16:07:42;16;15;
63707;PMS5003;67643;-34.198;22.084;2023-04-19T16:10:11;18;16;
63707;PMS5003;67643;-34.198;22.084;2023-04-19T16:12:40;18;15;
63707;PMS5003;67643;-34.198;22.084;2023-04-19T16:15:09;15;15;
63707;PMS5003;67643;-34.198;22.084;2023-04-19T16:17:38;17;14;
63707;PMS5003;67643;-34.198;22.084;2023-04-19T16:20:07;16;14;
63707;PMS5003;67643;-34.198;22.084;2023-04-19T16:22:35;18;17;
63707;PMS5003;67643;-34.198;22.084;2023-04-19T16:25:04;17;17;
63707;PMS5003;67643;-34.198;22.084;2023-04-19T16:27:33;22;19;
63707;PMS5003;67643;-34.198;22.084;2023-04-19T16:30:02;14;14;
63707;PMS5003;67643;-34.198;22.084;2023-04-19T16:32:30;19;16;
63707;PMS5003;67643;-34.198;22.084;2023-04-19T16:34:59;18;15;
63707;PMS5003;67643;-34.198;22.084;2023-04-19T16:37:28;28;18;
63707;PMS5003;67643;-34.198;22.084;2023-04-19T16:39:57;18;14;
63707;PMS5003;67643;-34.198;22.084;2023-04-19T16:42:25;23;18;
63707;PMS5003;67643;-34.198;22.084;2023-04-19T16:44:54;18;17;
63707;PMS5003;67643;-34.198;22.084;2023-04-19T16:47:22;18;18;
63707;PMS5003;67643;-34.198;22.084;2023-04-19T16:49:51;21;17;
63707;PMS5003;67643;-34.198;22.084;2023-04-19T16:52:19;20;18;
63707;PMS5003;67643;-34.198;22.084;2023-04-19T16:54:48;19;19;
63707;PMS5003;67643;-34.198;22.084;2023-04-19T16:57:16;20;20;
63707;PMS5003;67643;-34.198;22.084;2023-04-19T16:59:45;25;21;
63707;PMS5003;67643;-34.198;22.084;2023-04-19T17:02:14;19;17;
63707;PMS5003;67643;-34.198;22.084;2023-04-19T17:04:43;21;20;
63707;PMS5003;67643;-34.198;22.084;2023-04-19T17:07:11;28;27;
63707;PMS5003;67643;-34.198;22.084;2023-04-19T17:09:40;25;21;
63707;PMS5003;67643;-34.198;22.084;2023-04-19T17:12:08;23;21;
63707;PMS5003;67643;-34.198;22.084;2023-04-19T17:14:37;19;19;
63707;PMS5003;67643;-34.198;22.084;2023-04-19T17:17:06;18;15;
63707;PMS5003;67643;-34.198;22.084;2023-04-19T17:19:35;28;24;
63707;PMS5003;67643;-34.198;22.084;2023-04-19T17:22:03;22;21;
63707;PMS5003;67643;-34.198;22.084;2023-04-19T17:24:32;21;18;
63707;PMS5003;67643;-34.198;22.084;2023-04-19T17:27:01;22;20;
63707;PMS5003;67643;-34.198;22.084;2023-04-19T17:29:29;22;21;
63707;PMS5003;67643;-34.198;22.084;2023-04-19T17:31:57;27;22;
63707;PMS5003;67643;-34.198;22.084;2023-04-19T17:34:26;21;21;
63707;PMS5003;67643;-34.198;22.084;2023-04-19T17:36:55;23;22;
63707;PMS5003;67643;-34.198;22.084;2023-04-19T17:39:23;30;26;
63707;PMS5003;67643;-34.198;22.084;2023-04-19T17:41:52;41;37;
63707;PMS5003;67643;-34.198;22.084;2023-04-19T17:44:20;36;34;
63707;PMS5003;67643;-34.198;22.084;2023-04-19T17:46:49;31;28;
63707;PMS5003;67643;-34.198;22.084;2023-04-19T17:49:17;34;26;
63707;PMS5003;67643;-34.198;22.084;2023-04-19T17:51:46;27;23;
63707;PMS5003;67643;-34.198;22.084;2023-04-19T17:54:15;29;26;
63707;PMS5003;67643;-34.198;22.084;2023-04-19T17:56:44;32;26;
63707;PMS5003;67643;-34.198;22.084;2023-04-19T17:59:12;27;26;
63707;PMS5003;67643;-34.198;22.084;2023-04-19T22:07:29;20;19;
63707;PMS5003;67643;-34.198;22.084;2023-04-19T22:09:58;21;20;
63707;PMS5003;67643;-34.198;22.084;2023-04-19T22:12:27;25;22;
63707;PMS5003;67643;-34.198;22.084;2023-04-19T22:14:56;21;18;
63707;PMS5003;67643;-34.198;22.084;2023-04-19T22:17:24;23;19;
63707;PMS5003;67643;-34.198;22.084;2023-04-19T22:19:52;23;23;
63707;PMS5003;67643;-34.198;22.084;2023-04-19T22:22:21;20;17;
63707;PMS5003;67643;-34.198;22.084;2023-04-19T22:24:50;20;16;
63707;PMS5003;67643;-34.198;22.084;2023-04-19T22:27:18;20;16;
63707;PMS5003;67643;-34.198;22.084;2023-04-19T22:29:47;25;18;
63707;PMS5003;67643;-34.198;22.084;2023-04-19T22:32:15;23;21;
63707;PMS5003;67643;-34.198;22.084;2023-04-19T22:34:43;18;16;
63707;PMS5003;67643;-34.198;22.084;2023-04-19T22:37:12;17;16;
63707;PMS5003;67643;-34.198;22.084;2023-04-19T22:39:40;18;14;
63707;PMS5003;67643;-34.198;22.084;2023-04-19T22:42:08;15;15;
63707;PMS5003;67643;-34.198;22.084;2023-04-19T22:44:37;17;16;
63707;PMS5003;67643;-34.198;22.084;2023-04-19T22:47:05;22;17;
63707;PMS5003;67643;-34.198;22.084;2023-04-19T22:49:34;17;14;
63707;PMS5003;67643;-34.198;22.084;2023-04-19T22:52:02;14;12;
63707;PMS5003;67643;-34.198;22.084;2023-04-19T22:54:31;18;16;
63707;PMS5003;67643;-34.198;22.084;2023-04-19T22:56:59;14;13;
63707;PMS5003;67643;-34.198;22.084;2023-04-19T22:59:28;19;17;
63707;PMS5003;67643;-34.198;22.084;2023-04-19T23:01:56;18;18;
63707;PMS5003;67643;-34.198;22.084;2023-04-19T23:04:25;21;16;
63707;PMS5003;67643;-34.198;22.084;2023-04-19T23:06:58;18;15;
63707;PMS5003;67643;-34.198;22.084;2023-04-19T23:09:27;26;20;
63707;PMS5003;67643;-34.198;22.084;2023-04-19T23:11:56;15;15;
63707;PMS5003;67643;-34.198;22.084;2023-04-19T23:14:24;21;19;
63707;PMS5003;67643;-34.198;22.084;2023-04-19T23:16:53;20;19;
63707;PMS5003;67643;-34.198;22.084;2023-04-19T23:19:21;16;14;
63707;PMS5003;67643;-34.198;22.084;2023-04-19T23:21:50;14;14;
63707;PMS5003;67643;-34.198;22.084;2023-04-19T23:24:18;17;15;
63707;PMS5003;67643;-34.198;22.084;2023-04-19T23:26:46;16;15;
63707;PMS5003;67643;-34.198;22.084;2023-04-19T23:29:15;16;14;
63707;PMS5003;67643;-34.198;22.084;2023-04-19T23:31:43;21;18;
63707;PMS5003;67643;-34.198;22.084;2023-04-19T23:34:11;18;15;
63707;PMS5003;67643;-34.198;22.084;2023-04-19T23:36:40;19;18;
63707;PMS5003;67643;-34.198;22.084;2023-04-19T23:39:08;20;17;
63707;PMS5003;67643;-34.198;22.084;2023-04-19T23:41:37;15;14;
63707;PMS5003;67643;-34.198;22.084;2023-04-19T23:44:05;11;11;
63707;PMS5003;67643;-34.198;22.084;2023-04-19T23:46:34;18;15;
63707;PMS5003;67643;-34.198;22.084;2023-04-19T23:49:03;13;13;
63707;PMS5003;67643;-34.198;22.084;2023-04-19T23:51:32;12;8;
63707;PMS5003;67643;-34.198;22.084;2023-04-19T23:54:00;14;12;
63707;PMS5003;67643;-34.198;22.084;2023-04-19T23:56:28;11;9;
63707;PMS5003;67643;-34.198;22.084;2023-04-19T23:58:57;19;15;
